Time;durP1;ratioP1;P1;durP2;ratioP2;P2;SDS_P1;SDS_P2;PMS_P1;PMS_P2;Temp;Humidity;BMP_temperature;BMP_pressure;BME280_temperature;BME280_humidity;BME280_pressure;Samples;Min_cycle;Max_cycle;Signal;HPM_P1;HPM_P2
2023/12/19 00:00:44;;;;;;;20.93;11.30;;;;;;;5.75;100.00;101272.22;6200492;22;20098;-89
2023/12/19 00:03:12;;;;;;;23.90;13.20;;;;;;;5.73;100.00;101263.47;6199642;22;20149;-89
2023/12/19 00:05:40;;;;;;;19.43;10.57;;;;;;;5.63;100.00;101270.34;6200201;22;20438;-88
2023/12/19 00:08:08;;;;;;;19.20;10.73;;;;;;;5.65;100.00;101271.25;6224876;22;20708;-89
2023/12/19 00:10:36;;;;;;;19.03;10.37;;;;;;;5.68;100.00;101299.22;6199558;22;20095;-89
2023/12/19 00:13:04;;;;;;;18.47;10.90;;;;;;;5.63;100.00;101314.91;6224360;22;20094;-90
2023/12/19 00:15:32;;;;;;;20.53;10.23;;;;;;;5.68;100.00;101321.06;6200016;22;20502;-89
2023/12/19 00:18:00;;;;;;;17.10;9.63;;;;;;;5.61;100.00;101311.38;6224450;22;20015;-89
2023/12/19 00:20:30;;;;;;;18.83;11.20;;;;;;;5.69;100.00;101309.72;6200215;22;20086;-90
2023/12/19 00:22:58;;;;;;;18.90;11.10;;;;;;;5.69;100.00;101296.63;6200061;22;20261;-89
2023/12/19 00:25:26;;;;;;;19.23;10.90;;;;;;;5.60;100.00;101301.78;6250702;22;20110;-89
2023/12/19 00:27:53;;;;;;;16.30;10.70;;;;;;;5.52;100.00;101296.44;6200736;22;20095;-89
2023/12/19 00:30:21;;;;;;;20.03;11.07;;;;;;;5.63;100.00;101294.84;6220868;22;20026;-89
2023/12/19 00:32:49;;;;;;;17.87;10.57;;;;;;;5.66;100.00;101299.22;6199831;22;20106;-89
2023/12/19 00:35:17;;;;;;;19.47;10.47;;;;;;;5.67;100.00;101300.97;6199847;22;20098;-88
2023/12/19 00:37:44;;;;;;;17.17;10.20;;;;;;;5.60;100.00;101307.91;6224505;22;20075;-89
2023/12/19 00:40:15;;;;;;;15.73;10.20;;;;;;;5.65;100.00;101307.94;6224614;22;20518;-91
2023/12/19 00:42:43;;;;;;;17.20;10.60;;;;;;;5.61;100.00;101307.03;6201079;22;20102;-90
2023/12/19 00:45:12;;;;;;;17.63;11.10;;;;;;;5.67;100.00;101327.19;6225617;22;20522;-91
2023/12/19 00:47:43;;;;;;;20.87;11.83;;;;;;;5.65;100.00;101311.44;6201716;22;20095;-90
2023/12/19 00:50:15;;;;;;;17.67;10.17;;;;;;;5.69;100.00;101312.34;6224624;22;20111;-90
2023/12/19 00:52:43;;;;;;;17.33;10.33;;;;;;;5.64;100.00;101324.56;6199587;22;20098;-90
2023/12/19 00:55:11;;;;;;;17.00;10.17;;;;;;;5.64;100.00;101304.44;6224544;22;20095;-89
2023/12/19 00:57:39;;;;;;;17.20;10.47;;;;;;;5.58;100.00;101303.50;6199359;22;20157;-89
2023/12/19 01:00:07;;;;;;;18.93;11.27;;;;;;;5.62;100.00;101307.91;6223944;22;20094;-89
2023/12/19 01:02:35;;;;;;;17.07;11.37;;;;;;;5.70;100.00;101305.34;6199413;22;20110;-89
2023/12/19 01:05:02;;;;;;;17.87;10.83;;;;;;;5.64;100.00;101317.56;6199946;22;20095;-90
2023/12/19 01:07:30;;;;;;;16.90;11.20;;;;;;;5.68;100.00;101318.47;6199606;22;20153;-89
2023/12/19 01:09:58;;;;;;;17.80;10.33;;;;;;;5.73;100.00;101313.28;6199083;22;20103;-89
2023/12/19 01:12:26;;;;;;;19.20;10.63;;;;;;;5.71;100.00;101305.38;6199830;22;20090;-91
2023/12/19 01:14:54;;;;;;;20.10;11.63;;;;;;;5.77;100.00;101302.81;6199581;22;20206;-90
2023/12/19 01:17:21;;;;;;;18.93;10.77;;;;;;;5.80;100.00;101295.00;6199309;22;20153;-89
2023/12/19 01:19:49;;;;;;;20.67;10.80;;;;;;;5.78;100.00;101316.78;6199424;22;20128;-90
2023/12/19 01:22:17;;;;;;;18.47;11.67;;;;;;;5.71;100.00;101304.50;6225427;22;20626;-89
2023/12/19 01:24:45;;;;;;;18.80;11.00;;;;;;;5.82;100.00;101298.50;6201510;22;20016;-89
2023/12/19 01:27:14;;;;;;;19.50;10.63;;;;;;;5.80;100.00;101299.34;6201694;22;20098;-91
2023/12/19 01:29:41;;;;;;;20.20;11.70;;;;;;;5.81;100.00;101293.25;6201776;22;20102;-88
2023/12/19 01:32:09;;;;;;;18.20;10.90;;;;;;;5.77;100.00;101296.69;6225921;22;20091;-89
2023/12/19 01:34:36;;;;;;;19.07;11.17;;;;;;;5.74;100.00;101289.69;6201841;22;20094;-90
2023/12/19 01:37:07;;;;;;;20.13;11.23;;;;;;;5.81;100.00;101293.25;6226670;22;20399;-90
2023/12/19 01:39:35;;;;;;;18.03;10.70;;;;;;;5.77;100.00;101280.97;6202153;22;20360;-91
2023/12/19 01:42:06;;;;;;;21.17;11.70;;;;;;;5.75;100.00;101288.81;6202428;22;20020;-90
2023/12/19 01:44:38;;;;;;;20.47;11.57;;;;;;;5.78;100.00;101283.59;6202159;22;20535;-91
2023/12/19 01:47:06;;;;;;;21.83;11.70;;;;;;;5.82;100.00;101302.88;6202668;22;20102;-91
2023/12/19 01:49:40;;;;;;;21.40;12.20;;;;;;;5.78;100.00;101294.06;6202321;22;20095;-91
2023/12/19 01:52:10;;;;;;;16.63;9.55;;;;;;;5.77;100.00;101286.22;6201692;22;20083;-90
2023/12/19 01:54:39;;;;;;;17.70;9.93;;;;;;;5.86;100.00;101281.91;6178180;22;20400;-92
2023/12/19 01:57:09;;;;;;;18.60;11.47;;;;;;;5.78;100.00;101266.97;6202585;22;20094;-90
2023/12/19 01:59:39;;;;;;;19.13;10.77;;;;;;;5.76;100.00;101266.97;6227179;22;20376;-90
2023/12/19 02:02:08;;;;;;;18.10;10.77;;;;;;;5.78;100.00;101265.25;6227011;22;20099;-91
2023/12/19 02:04:36;;;;;;;19.53;11.07;;;;;;;5.78;100.00;101259.13;6202039;22;20020;-90
2023/12/19 02:07:05;;;;;;;20.33;11.83;;;;;;;5.86;100.00;101265.31;6201957;22;20087;-90
2023/12/19 02:09:34;;;;;;;20.63;12.17;;;;;;;5.86;100.00;101253.06;6201858;22;20102;-91
2023/12/19 02:12:03;;;;;;;19.43;11.67;;;;;;;5.91;100.00;101258.41;6202109;22;20098;-90
2023/12/19 02:14:32;;;;;;;19.47;11.87;;;;;;;5.84;100.00;101246.06;6201936;22;20020;-91
2023/12/19 02:17:00;;;;;;;20.77;11.20;;;;;;;5.87;100.00;101244.34;6201886;22;20510;-91
2023/12/19 02:19:28;;;;;;;22.03;13.47;;;;;;;5.86;100.00;101237.34;6201702;22;20094;-91
2023/12/19 02:21:57;;;;;;;21.57;11.80;;;;;;;5.90;100.00;101241.78;6226208;22;20154;-91
2023/12/19 02:24:29;;;;;;;20.90;11.83;;;;;;;5.92;100.00;101254.91;6202157;22;20102;-90
2023/12/19 02:26:58;;;;;;;22.83;12.67;;;;;;;5.97;100.00;101232.22;6226185;22;20095;-90
2023/12/19 02:29:27;;;;;;;21.57;11.63;;;;;;;5.90;100.00;101230.38;6226463;22;20095;-91
2023/12/19 02:31:58;;;;;;;22.33;13.63;;;;;;;5.92;100.00;101232.19;6226084;22;20099;-90
2023/12/19 02:34:26;;;;;;;22.53;12.53;;;;;;;5.93;100.00;101231.31;6201802;22;20102;-90
2023/12/19 02:36:55;;;;;;;22.47;13.00;;;;;;;5.91;100.00;101226.94;6226142;22;20027;-90
2023/12/19 02:39:27;;;;;;;23.87;12.97;;;;;;;5.92;100.00;101228.69;6202732;22;20027;-90
2023/12/19 02:41:56;;;;;;;21.43;12.13;;;;;;;5.87;100.00;101240.84;6226105;22;20585;-91
2023/12/19 02:44:25;;;;;;;22.90;12.77;;;;;;;5.96;100.00;101240.06;6201224;22;20098;-90
2023/12/19 02:46:53;;;;;;;22.97;12.63;;;;;;;5.93;100.00;101243.56;6201498;22;20499;-90
2023/12/19 02:49:21;;;;;;;20.00;12.73;;;;;;;5.93;100.00;101246.16;6201231;22;20107;-91
2023/12/19 02:51:50;;;;;;;22.27;12.13;;;;;;;5.96;100.00;101235.69;6226200;22;20082;-91
2023/12/19 02:54:19;;;;;;;22.67;12.00;;;;;;;5.92;100.00;101220.81;6225753;22;20146;-90
2023/12/19 02:56:47;;;;;;;24.40;12.43;;;;;;;5.94;100.00;101221.69;6225728;22;20095;-91
2023/12/19 02:59:15;;;;;;;23.73;13.03;;;;;;;5.97;100.00;101236.56;6201219;22;20407;-90
2023/12/19 03:01:49;;;;;;;24.30;12.60;;;;;;;5.95;100.00;101239.19;6200715;22;20090;-90
2023/12/19 03:04:17;;;;;;;;;;;;;;;5.95;100.00;101233.06;6250666;22;20090;-90
2023/12/19 03:06:46;;;;;;;21.63;11.93;;;;;;;5.93;100.00;101236.56;6201030;22;19915;-90
2023/12/19 03:09:14;;;;;;;22.37;12.60;;;;;;;5.96;100.00;101229.56;6201475;22;20118;-91
2023/12/19 03:12:01;;;;;;;24.87;12.50;;;;;;;5.91;100.00;101219.94;6201282;22;20451;-90
2023/12/19 03:14:33;;;;;;;23.93;12.03;;;;;;;6.00;100.00;101221.75;6225316;22;20392;-90
2023/12/19 03:17:03;;;;;;;22.13;12.73;;;;;;;6.04;100.00;101213.03;6200780;22;20102;-91
2023/12/19 03:19:31;;;;;;;21.57;11.90;;;;;;;5.96;100.00;101198.97;6225594;22;20099;-90
2023/12/19 03:22:00;;;;;;;20.43;12.77;;;;;;;5.97;100.00;101200.75;6201067;22;20095;-90
2023/12/19 03:24:28;;;;;;;21.63;12.60;;;;;;;5.97;100.00;101206.00;6200892;22;20083;-91
2023/12/19 03:26:57;;;;;;;22.00;12.07;;;;;;;5.99;100.00;101195.53;6200820;22;20099;-90
2023/12/19 03:29:25;;;;;;;23.07;14.37;;;;;;;6.05;100.00;101185.91;6225621;22;20091;-90
2023/12/19 03:31:54;;;;;;;25.07;11.87;;;;;;;6.02;100.00;101198.16;6225226;22;20086;-90
2023/12/19 03:34:22;;;;;;;23.87;12.47;;;;;;;5.99;100.00;101201.63;6200648;22;20090;-91
2023/12/19 03:36:51;;;;;;;22.60;11.90;;;;;;;5.94;100.00;101182.34;6199948;22;20099;-92
2023/12/19 03:39:18;;;;;;;24.70;13.63;;;;;;;6.01;100.00;101178.91;6222609;22;20083;-93
2023/12/19 03:41:45;;;;;;;25.43;13.67;;;;;;;5.99;100.00;101178.03;6197947;22;20091;-92
2023/12/19 03:44:32;;;;;;;22.23;13.00;;;;;;;6.07;100.00;101173.72;6204978;22;20094;-92
2023/12/19 03:46:59;;;;;;;24.53;13.23;;;;;;;6.00;100.00;101179.78;6197676;22;20026;-90
2023/12/19 03:49:27;;;;;;;23.33;13.77;;;;;;;6.08;100.00;101177.22;6198261;22;20095;-93
2023/12/19 03:51:54;;;;;;;25.47;13.20;;;;;;;6.05;100.00;101182.41;6222808;22;20082;-93
2023/12/19 03:54:22;;;;;;;22.73;12.80;;;;;;;6.03;100.00;101178.91;6197151;22;20090;-92
2023/12/19 03:56:49;;;;;;;23.33;13.10;;;;;;;6.10;100.00;101176.34;6197707;22;20023;-92
2023/12/19 03:59:16;;;;;;;23.47;12.40;;;;;;;6.09;100.00;101179.84;6198120;22;20134;-92
2023/12/19 04:01:44;;;;;;;24.10;13.40;;;;;;;6.09;100.00;101164.09;6221220;22;20092;-92
2023/12/19 04:04:12;;;;;;;24.97;13.53;;;;;;;6.06;100.00;101174.59;6198126;22;20102;-91
2023/12/19 04:06:43;;;;;;;23.50;12.30;;;;;;;6.08;100.00;101158.84;6197740;22;20157;-92
2023/12/19 04:09:11;;;;;;;22.37;12.77;;;;;;;6.09;100.00;101178.97;6198610;22;20122;-93
2023/12/19 04:11:38;;;;;;;23.93;12.80;;;;;;;6.05;100.00;101167.56;6196602;22;20094;-91
2023/12/19 04:14:05;;;;;;;23.33;12.70;;;;;;;6.09;100.00;101163.22;6223416;22;20107;-90
2023/12/19 04:16:32;;;;;;;26.10;14.30;;;;;;;6.09;100.00;101176.34;6197669;22;20095;-93
2023/12/19 04:19:00;;;;;;;21.63;12.67;;;;;;;6.07;100.00;101196.44;6197930;22;20122;-92
2023/12/19 04:21:27;;;;;;;24.33;14.13;;;;;;;6.08;100.00;101196.44;6196308;22;20015;-93
2023/12/19 04:23:54;;;;;;;24.13;14.00;;;;;;;6.09;100.00;101187.72;6222925;22;20095;-93
2023/12/19 04:26:21;;;;;;;22.43;12.47;;;;;;;6.13;100.00;101173.72;6197769;22;20106;-91
2023/12/19 04:28:48;;;;;;;26.77;15.23;;;;;;;6.01;100.00;101176.28;6222825;22;20098;-93
2023/12/19 04:31:16;;;;;;;23.57;13.37;;;;;;;6.08;100.00;101159.72;6196395;22;20150;-91
2023/12/19 04:33:43;;;;;;;26.17;14.43;;;;;;;6.14;100.00;101159.78;6222666;22;20510;-92
2023/12/19 04:36:10;;;;;;;28.43;14.80;;;;;;;6.12;100.00;101152.75;6222238;22;20515;-92
2023/12/19 04:38:39;;;;;;;22.73;12.70;;;;;;;6.12;100.00;101158.00;6197076;22;20103;-92
2023/12/19 04:41:06;;;;;;;27.97;14.27;;;;;;;6.20;100.00;101153.66;6197756;22;20126;-91
2023/12/19 04:43:34;;;;;;;22.07;13.30;;;;;;;6.19;100.00;101171.16;6221855;22;20102;-90
2023/12/19 04:46:02;;;;;;;25.73;14.00;;;;;;;6.18;100.00;101172.03;6196659;22;20539;-92
2023/12/19 04:48:33;;;;;;;23.80;13.40;;;;;;;6.18;100.00;101164.16;6222413;22;20095;-92
2023/12/19 04:51:00;;;;;;;25.13;13.40;;;;;;;6.12;100.00;101166.72;6197546;22;20141;-91
2023/12/19 04:53:28;;;;;;;21.97;14.07;;;;;;;6.11;100.00;101161.47;6194843;22;20094;-93
2023/12/19 04:55:55;;;;;;;25.53;13.57;;;;;;;6.17;100.00;101162.41;6221045;22;20141;-92
2023/12/19 04:58:22;;;;;;;22.83;13.47;;;;;;;6.21;100.00;101156.28;6196351;22;20332;-91
2023/12/19 05:00:51;;;;;;;24.13;12.80;;;;;;;6.16;100.00;101158.03;6221073;22;20103;-92
2023/12/19 05:03:18;;;;;;;24.03;13.93;;;;;;;6.17;100.00;101153.66;6221995;22;20502;-92
2023/12/19 05:05:45;;;;;;;24.77;13.47;;;;;;;6.11;100.00;101157.13;6196054;22;20098;-92
2023/12/19 05:08:15;;;;;;;21.83;13.40;;;;;;;6.10;100.00;101160.59;6221644;22;20086;-92
2023/12/19 05:10:43;;;;;;;26.87;13.73;;;;;;;6.12;100.00;101158.00;6196738;22;20054;-92
2023/12/19 05:13:10;;;;;;;23.47;13.53;;;;;;;6.21;100.00;101144.91;6196360;22;20022;-93
2023/12/19 05:15:38;;;;;;;26.00;14.17;;;;;;;6.15;100.00;101147.53;6196980;22;20094;-92
2023/12/19 05:18:08;;;;;;;24.03;13.50;;;;;;;6.23;100.00;101130.09;6197360;22;20137;-92
2023/12/19 05:20:35;;;;;;;24.23;13.07;;;;;;;6.25;100.00;101130.09;6195924;22;20020;-92
2023/12/19 05:23:03;;;;;;;24.53;12.37;;;;;;;6.21;100.00;101124.81;6195876;22;20102;-92
2023/12/19 05:25:30;;;;;;;23.07;12.87;;;;;;;6.13;100.00;101120.38;6196721;22;20141;-92
2023/12/19 05:27:57;;;;;;;24.43;13.83;;;;;;;6.11;100.00;101107.28;6196939;22;20106;-91
2023/12/19 05:30:24;;;;;;;24.10;14.43;;;;;;;6.09;100.00;101109.03;6194916;22;20510;-93
2023/12/19 05:32:51;;;;;;;24.33;12.90;;;;;;;6.16;100.00;101113.44;6194520;22;20134;-92
2023/12/19 05:35:18;;;;;;;22.87;13.13;;;;;;;6.14;100.00;101109.94;6195055;22;20024;-92
2023/12/19 05:37:49;;;;;;;21.23;12.37;;;;;;;6.11;100.00;101111.66;6195307;22;20584;-92
2023/12/19 05:40:18;;;;;;;21.90;12.53;;;;;;;6.05;100.00;101109.84;6195214;22;20102;-91
2023/12/19 05:42:45;;;;;;;22.93;13.33;;;;;;;6.12;100.00;101098.53;6195596;22;20087;-91
2023/12/19 05:45:13;;;;;;;24.93;13.20;;;;;;;6.09;100.00;101116.88;6220009;22;20031;-92
2023/12/19 05:47:40;;;;;;;24.47;12.77;;;;;;;6.10;100.00;101123.00;6194813;22;20091;-92
2023/12/19 05:50:08;;;;;;;24.33;13.30;;;;;;;6.10;100.00;101129.13;6219266;22;20504;-92
2023/12/19 05:52:38;;;;;;;24.70;14.37;;;;;;;6.15;100.00;101131.78;6195308;22;20119;-92
2023/12/19 05:55:05;;;;;;;24.87;13.33;;;;;;;6.17;100.00;101116.94;6194027;22;20546;-92
2023/12/19 05:57:33;;;;;;;22.40;12.93;;;;;;;6.12;100.00;101108.16;6219794;22;20379;-93
2023/12/19 06:00:00;;;;;;;23.23;13.60;;;;;;;6.14;100.00;101101.19;6195051;22;20099;-91
2023/12/19 06:02:27;;;;;;;22.53;12.70;;;;;;;6.07;100.00;101099.41;6194483;22;20096;-93
2023/12/19 06:04:55;;;;;;;23.93;13.50;;;;;;;6.10;100.00;101089.78;6193902;22;20102;-92
2023/12/19 06:07:22;;;;;;;21.13;12.97;;;;;;;6.12;100.00;101088.03;6195160;22;20099;-92
2023/12/19 06:09:49;;;;;;;24.47;12.63;;;;;;;6.07;100.00;101087.16;6196289;22;20414;-92
2023/12/19 06:12:16;;;;;;;22.97;12.80;;;;;;;6.06;100.00;101095.91;6196726;22;20031;-94
2023/12/19 06:14:44;;;;;;;19.53;12.93;;;;;;;6.09;100.00;101101.16;6196437;22;20098;-93
2023/12/19 06:17:11;;;;;;;22.87;12.10;;;;;;;6.07;100.00;101091.53;6195528;22;20407;-91
2023/12/19 06:19:38;;;;;;;21.13;12.60;;;;;;;6.09;100.00;101097.66;6196048;22;20165;-91
2023/12/19 06:22:10;;;;;;;22.43;14.13;;;;;;;6.05;100.00;101102.00;6220650;22;20019;-92
2023/12/19 06:24:37;;;;;;;22.87;12.87;;;;;;;6.12;100.00;101092.41;6196322;22;20545;-92
2023/12/19 06:27:04;;;;;;;21.63;11.90;;;;;;;6.11;100.00;101081.03;6220546;22;20095;-91
2023/12/19 06:29:31;;;;;;;24.53;14.03;;;;;;;6.07;100.00;101071.41;6195065;22;20102;-92
2023/12/19 06:31:58;;;;;;;20.53;12.37;;;;;;;6.06;100.00;101077.53;6195971;22;20332;-92
2023/12/19 06:34:34;;;;;;;20.67;12.60;;;;;;;6.08;100.00;101082.78;6196841;22;20134;-92
2023/12/19 06:37:02;;;;;;;22.43;13.73;;;;;;;6.04;100.00;101096.75;6196541;22;20099;-92
2023/12/19 06:39:29;;;;;;;21.27;12.53;;;;;;;6.11;100.00;101094.16;6221093;22;20098;-92
2023/12/19 06:41:56;;;;;;;24.83;13.70;;;;;;;6.12;100.00;101085.41;6196274;22;20107;-92
2023/12/19 06:44:27;;;;;;;24.40;12.93;;;;;;;6.06;100.00;101069.66;6247164;22;20457;-92
2023/12/19 06:46:54;;;;;;;21.73;13.00;;;;;;;6.07;100.00;101070.53;6196339;22;20626;-92
2023/12/19 06:49:22;;;;;;;22.60;13.87;;;;;;;6.07;100.00;101079.28;6196333;22;20106;-93
2023/12/19 06:51:49;;;;;;;25.83;13.73;;;;;;;6.03;100.00;101059.16;6195073;22;20094;-92
2023/12/19 06:54:16;;;;;;;22.67;12.10;;;;;;;6.07;100.00;101055.69;6195727;22;20099;-92
2023/12/19 06:56:44;;;;;;;24.30;14.43;;;;;;;5.96;100.00;101066.97;6195458;22;20145;-93
2023/12/19 06:59:11;;;;;;;20.23;12.30;;;;;;;5.96;100.00;101077.47;6195695;22;20118;-91
2023/12/19 07:01:39;;;;;;;23.60;12.37;;;;;;;6.05;100.00;101078.38;6195586;22;20106;-92
2023/12/19 07:04:06;;;;;;;19.00;11.73;;;;;;;6.09;100.00;101080.16;6195493;22;20102;-92
2023/12/19 07:06:33;;;;;;;22.83;12.47;;;;;;;6.10;100.00;101094.16;6220245;22;20126;-93
2023/12/19 07:09:03;;;;;;;23.37;13.40;;;;;;;6.12;100.00;101103.78;6221054;22;20090;-92
2023/12/19 07:11:30;;;;;;;18.40;11.27;;;;;;;6.01;100.00;101107.22;6195277;22;20110;-92
2023/12/19 07:14:01;;;;;;;20.43;12.07;;;;;;;6.05;100.00;101101.13;6222753;22;20018;-91
2023/12/19 07:16:28;;;;;;;20.57;11.97;;;;;;;6.13;100.00;101099.41;6220135;22;20082;-93
2023/12/19 07:18:55;;;;;;;22.07;12.77;;;;;;;6.18;100.00;101097.69;6195452;22;20141;-92
2023/12/19 07:21:29;;;;;;;21.53;12.63;;;;;;;6.09;100.00;101092.41;6197198;22;20126;-93
2023/12/19 07:23:57;;;;;;;20.97;12.10;;;;;;;6.00;100.00;101085.38;6196130;22;20092;-92
2023/12/19 07:26:28;;;;;;;21.97;12.73;;;;;;;6.10;100.00;101081.91;6196022;22;20391;-93
2023/12/19 07:28:59;;;;;;;21.03;12.77;;;;;;;6.02;100.00;101080.13;6195915;22;20454;-92
2023/12/19 07:31:33;;;;;;;24.00;13.13;;;;;;;6.07;100.00;101078.41;6197285;22;20106;-92
2023/12/19 07:34:03;;;;;;;21.77;12.43;;;;;;;6.10;100.00;101081.03;6196480;22;20141;-93
2023/12/19 07:36:32;;;;;;;23.50;13.63;;;;;;;6.12;100.00;101085.41;6196371;22;20122;-93
2023/12/19 07:39:00;;;;;;;20.53;12.13;;;;;;;6.07;100.00;101081.03;6197344;22;20130;-92
2023/12/19 07:41:27;;;;;;;19.87;12.03;;;;;;;6.08;100.00;101093.28;6195954;22;20712;-93
2023/12/19 07:43:55;;;;;;;23.63;13.30;;;;;;;6.10;100.00;101092.41;6196695;22;20467;-93
2023/12/19 07:46:23;;;;;;;22.47;12.90;;;;;;;6.09;100.00;101087.16;6195723;22;20102;-92
2023/12/19 07:48:50;;;;;;;21.57;12.43;;;;;;;6.02;100.00;101081.00;6221442;22;20533;-91
2023/12/19 07:51:23;;;;;;;23.63;12.87;;;;;;;6.00;100.00;101066.13;6219727;22;20095;-92
2023/12/19 07:53:51;;;;;;;23.30;13.32;;;;;;;6.00;100.00;101063.50;6195937;22;20053;-92
2023/12/19 07:56:20;;;;;;;20.93;11.90;;;;;;;6.02;100.00;101060.03;6196165;22;20102;-93
2023/12/19 07:58:48;;;;;;;20.20;12.50;;;;;;;5.95;100.00;101054.72;6194870;22;20461;-92
2023/12/19 08:01:16;;;;;;;21.70;13.20;;;;;;;5.95;100.00;101063.47;6220165;22;20106;-91
2023/12/19 08:03:44;;;;;;;23.30;12.53;;;;;;;6.03;100.00;101047.78;6195359;22;20149;-93
2023/12/19 08:06:12;;;;;;;22.97;15.87;;;;;;;5.99;100.00;101046.03;6193441;22;20106;-93
2023/12/19 08:08:40;;;;;;;24.73;14.33;;;;;;;6.05;100.00;101046.03;6203233;22;20083;-92
2023/12/19 08:11:08;;;;;;;22.67;12.60;;;;;;;5.95;100.00;101034.63;6254561;22;20055;-93
2023/12/19 08:13:38;;;;;;;19.00;13.50;;;;;;;5.91;100.00;101043.38;6197109;22;20016;-91
2023/12/19 08:16:08;;;;;;;21.00;13.23;;;;;;;5.91;100.00;101043.38;6220409;22;20107;-92
2023/12/19 08:18:36;;;;;;;21.67;13.13;;;;;;;5.77;100.00;101035.38;6195507;22;20019;-92
2023/12/19 08:21:04;;;;;;;20.63;12.47;;;;;;;5.87;100.00;101023.19;6195843;22;20134;-93
2023/12/19 08:23:31;;;;;;;19.50;12.47;;;;;;;5.87;100.00;101025.81;6195600;22;20129;-93
2023/12/19 08:25:58;;;;;;;22.60;13.00;;;;;;;5.87;100.00;101020.56;6195554;22;20106;-92
2023/12/19 08:28:26;;;;;;;20.63;12.33;;;;;;;5.83;100.00;101009.22;6195333;22;20095;-92
2023/12/19 08:30:55;;;;;;;21.53;12.57;;;;;;;5.81;100.00;101004.84;6195726;22;20090;-92
2023/12/19 08:33:23;;;;;;;21.20;12.47;;;;;;;5.84;100.00;100996.97;6220179;22;20145;-92
2023/12/19 08:35:50;;;;;;;20.80;13.03;;;;;;;5.74;100.00;101006.56;6195549;22;20197;-92
2023/12/19 08:38:17;;;;;;;31.73;26.00;;;;;;;5.84;100.00;101005.72;6195387;22;20099;-92
2023/12/19 08:40:45;;;;;;;22.40;15.50;;;;;;;5.75;100.00;101000.44;6220484;22;20518;-92
2023/12/19 08:43:12;;;;;;;21.83;12.27;;;;;;;5.79;100.00;100998.69;6196501;22;20506;-93
2023/12/19 08:45:41;;;;;;;25.77;15.40;;;;;;;5.77;100.00;100998.69;6195290;22;20107;-92
2023/12/19 08:48:09;;;;;;;19.87;12.40;;;;;;;5.75;100.00;100996.94;6195805;22;20384;-92
2023/12/19 08:50:36;;;;;;;21.10;11.83;;;;;;;5.65;100.00;100985.53;6194839;22;20153;-92
2023/12/19 08:53:05;;;;;;;19.60;12.23;;;;;;;5.75;100.00;100995.19;6194981;22;20107;-93
2023/12/19 08:55:32;;;;;;;20.97;12.33;;;;;;;5.75;100.00;100989.94;6195081;22;20551;-92
2023/12/19 08:57:59;;;;;;;19.77;10.97;;;;;;;5.83;100.00;101003.09;6194675;22;20102;-92
2023/12/19 09:00:27;;;;;;;19.17;11.30;;;;;;;5.86;100.00;101000.47;6194505;22;20094;-92
2023/12/19 09:02:54;;;;;;;17.63;10.87;;;;;;;5.87;100.00;100997.84;6219882;22;20095;-92
2023/12/19 09:05:21;;;;;;;15.73;9.63;;;;;;;5.83;100.00;100989.97;6194499;22;20118;-91
2023/12/19 09:07:48;;;;;;;17.00;10.07;;;;;;;5.90;100.00;100984.81;6195075;22;20112;-91
2023/12/19 09:10:16;;;;;;;15.77;9.40;;;;;;;5.87;100.00;100981.25;6244635;22;20342;-92
2023/12/19 09:12:44;;;;;;;13.70;8.33;;;;;;;5.78;100.00;100976.84;6219734;22;20018;-91
2023/12/19 09:15:12;;;;;;;16.13;9.83;;;;;;;5.82;100.00;100975.13;6195027;22;20107;-92
2023/12/19 09:17:46;;;;;;;15.30;8.80;;;;;;;5.80;100.00;100969.88;6194871;22;20153;-92
2023/12/19 09:20:17;;;;;;;13.40;8.30;;;;;;;5.79;100.00;100964.59;6194748;22;20149;-92
2023/12/19 09:22:44;;;;;;;13.73;8.50;;;;;;;5.77;100.00;100967.22;6220036;22;20106;-92
2023/12/19 09:25:14;;;;;;;14.43;8.57;;;;;;;5.91;100.00;100976.06;6219471;22;20107;-92
2023/12/19 09:27:43;;;;;;;16.00;10.10;;;;;;;5.91;100.00;100965.56;6195864;22;20102;-93
2023/12/19 09:30:12;;;;;;;13.77;8.50;;;;;;;5.88;100.00;100960.25;6220873;22;20527;-91
2023/12/19 09:32:40;;;;;;;14.83;9.07;;;;;;;5.84;100.00;100970.75;6197279;22;20099;-92
2023/12/19 09:35:10;;;;;;;17.23;11.07;;;;;;;5.87;100.00;100965.50;6194823;22;20177;-91
2023/12/19 09:37:38;;;;;;;15.50;9.20;;;;;;;5.92;100.00;100953.34;6195157;22;20051;-91
2023/12/19 09:40:12;;;;;;;13.57;7.83;;;;;;;5.91;100.00;100948.97;6194051;22;20106;-92
2023/12/19 09:42:39;;;;;;;13.98;8.02;;;;;;;5.96;100.00;100939.34;6195898;22;20099;-92
2023/12/19 09:45:07;;;;;;;11.10;6.63;;;;;;;5.95;100.00;100924.50;6197190;22;20178;-92
2023/12/19 09:47:39;;;;;;;14.70;9.67;;;;;;;6.00;100.00;100907.03;6196827;22;20099;-92
2023/12/19 09:50:12;;;;;;;14.70;8.20;;;;;;;5.99;100.00;100907.03;6196320;22;20149;-92
2023/12/19 09:52:41;;;;;;;11.10;6.50;;;;;;;5.93;100.00;100910.50;6221317;22;20086;-92
2023/12/19 09:55:10;;;;;;;12.40;6.77;;;;;;;5.87;100.00;100902.59;6222112;22;20094;-92
2023/12/19 09:57:38;;;;;;;8.73;5.90;;;;;;;5.96;100.00;100894.75;6200224;22;20103;-91
2023/12/19 10:00:08;;;;;;;9.30;5.97;;;;;;;5.95;100.00;100897.38;6239336;22;20027;-92
2023/12/19 10:02:36;;;;;;;10.77;6.40;;;;;;;6.00;100.00;100916.66;6197137;22;20111;-92
2023/12/19 10:05:04;;;;;;;11.87;6.97;;;;;;;5.94;100.00;100922.75;6196400;22;20414;-92
2023/12/19 10:07:32;;;;;;;11.00;6.33;;;;;;;6.03;100.00;100916.63;6197122;22;20098;-93
2023/12/19 10:10:03;;;;;;;9.77;7.10;;;;;;;5.99;100.00;100901.78;6198514;22;20094;-92
2023/12/19 10:12:31;;;;;;;10.77;6.30;;;;;;;6.02;100.00;100886.03;6236486;22;20072;-90
2023/12/19 10:15:13;;;;;;;10.43;7.07;;;;;;;6.09;100.00;100880.81;6211758;22;20051;-91
2023/12/19 10:18:13;;;;;;;11.40;6.87;;;;;;;6.03;100.00;100872.06;6199024;22;20098;-92
2023/12/19 10:20:40;;;;;;;9.67;6.27;;;;;;;6.08;100.00;100865.06;6224511;22;20543;-93
2023/12/19 10:23:09;;;;;;;10.60;6.77;;;;;;;6.09;100.00;100872.06;6196361;22;20160;-91
2023/12/19 10:25:36;;;;;;;10.47;6.43;;;;;;;6.01;100.00;100858.94;6196450;22;20518;-92
2023/12/19 10:28:13;;;;;;;9.67;6.60;;;;;;;6.07;100.00;100853.72;6200872;22;20411;-91
2023/12/19 10:30:43;;;;;;;9.77;6.30;;;;;;;6.06;100.00;100843.22;6197600;22;20138;-92
2023/12/19 10:33:15;;;;;;;9.70;6.10;;;;;;;6.00;100.00;100835.34;6197997;22;20102;-91
2023/12/19 10:35:44;;;;;;;10.80;6.47;;;;;;;6.07;100.00;100822.25;6223182;22;20538;-92
2023/12/19 10:38:12;;;;;;;10.63;6.73;;;;;;;6.06;100.00;100807.38;6198165;22;20067;-92
2023/12/19 10:40:42;;;;;;;11.50;6.27;;;;;;;6.03;100.00;100812.59;6221190;22;20103;-92
2023/12/19 10:43:09;;;;;;;11.23;6.27;;;;;;;6.03;100.00;100803.88;6220975;22;20102;-92
2023/12/19 10:45:38;;;;;;;9.47;5.70;;;;;;;6.03;100.00;100801.25;6195687;22;20090;-92
2023/12/19 10:48:06;;;;;;;9.10;6.10;;;;;;;6.02;100.00;100800.38;6196795;22;20533;-91
2023/12/19 10:50:33;;;;;;;8.47;5.50;;;;;;;5.98;100.00;100793.38;6194826;22;20115;-92
2023/12/19 10:53:05;;;;;;;8.10;5.27;;;;;;;6.12;100.00;100785.50;6220793;22;20107;-93
2023/12/19 10:55:45;;;;;;;9.27;5.73;;;;;;;6.16;100.00;100776.78;6198467;22;20090;-92
2023/12/19 10:58:19;;;;;;;8.77;5.57;;;;;;;6.01;100.00;100767.16;6197815;22;20126;-92
2023/12/19 11:00:49;;;;;;;7.80;4.78;;;;;;;6.08;100.00;100761.03;6195190;22;20542;-92
2023/12/19 11:03:22;;;;;;;7.70;4.60;;;;;;;6.07;100.00;100759.28;6195485;22;20098;-91
2023/12/19 11:05:52;;;;;;;8.85;5.32;;;;;;;6.14;100.00;100754.91;6220827;22;20027;-93
2023/12/19 11:08:21;;;;;;;7.20;4.67;;;;;;;6.18;100.00;100752.28;6196036;22;20023;-92
2023/12/19 11:11:09;;;;;;;7.57;4.77;;;;;;;6.17;100.00;100757.53;6196176;22;20122;-91
2023/12/19 11:13:37;;;;;;;7.37;4.50;;;;;;;6.16;100.00;100750.53;6195723;22;20157;-90
2023/12/19 11:16:23;;;;;;;7.43;4.50;;;;;;;6.12;100.00;100749.66;6195541;22;20145;-93
2023/12/19 11:18:57;;;;;;;7.83;5.00;;;;;;;6.11;100.00;100742.66;6221219;22;20145;-92